createdAt,value
2023-05-21T00:00:56.315Z,75.64
2023-05-21T00:02:11.252Z,75.96
2023-05-21T00:03:26.252Z,76.16
2023-05-21T00:04:41.247Z,76.36
2023-05-21T00:05:56.202Z,76.44
2023-05-21T00:07:11.127Z,76.75
2023-05-21T00:08:26.077Z,76.63
2023-05-21T00:09:41.096Z,76.67
2023-05-21T00:10:55.992Z,76.59
2023-05-21T00:12:10.952Z,76.73
2023-05-21T00:13:25.894Z,76.58
2023-05-21T00:14:40.838Z,76.58
2023-05-21T00:15:55.817Z,76.64
2023-05-21T00:17:10.740Z,76.77
2023-05-21T00:18:25.693Z,77.03
2023-05-21T00:19:40.676Z,76.82
2023-05-21T00:20:55.615Z,76.75
2023-05-21T00:22:10.582Z,77.07
2023-05-21T00:23:25.537Z,77.05
2023-05-21T00:24:40.479Z,77.25
2023-05-21T00:25:55.414Z,77.23
2023-05-21T00:27:10.418Z,77.20
2023-05-21T00:28:25.375Z,77.11
2023-05-21T00:29:41.685Z,77.32
2023-05-21T00:30:57.860Z,77.20
2023-05-21T00:32:12.892Z,77.07
2023-05-21T00:33:28.473Z,77.60
2023-05-21T00:34:43.429Z,77.34
2023-05-21T00:35:58.400Z,77.57
2023-05-21T00:37:13.341Z,77.65
2023-05-21T00:38:28.299Z,77.73
2023-05-21T00:39:43.257Z,77.84
2023-05-21T00:40:58.213Z,77.93
2023-05-21T00:42:13.262Z,78.06
2023-05-21T00:43:28.167Z,78.07
2023-05-21T00:44:43.108Z,78.09
2023-05-21T00:45:58.150Z,78.20
2023-05-21T00:47:13.072Z,78.53
2023-05-21T00:48:27.996Z,78.24
2023-05-21T00:49:42.954Z,77.95
2023-05-21T00:50:57.883Z,78.18
2023-05-21T00:52:12.848Z,77.47
2023-05-21T00:53:28.382Z,77.85
2023-05-21T00:54:43.354Z,77.73
2023-05-21T00:55:58.303Z,77.90
2023-05-21T00:57:13.242Z,77.99
2023-05-21T00:58:28.198Z,77.38
2023-05-21T00:59:43.146Z,77.99
2023-05-21T01:02:15.828Z,77.47
2023-05-21T01:03:31.792Z,77.63
2023-05-21T01:04:46.836Z,78.01
2023-05-21T01:06:01.765Z,77.73
2023-05-21T01:07:16.707Z,78.09
2023-05-21T01:08:31.655Z,78.02
2023-05-21T01:09:46.614Z,78.00
2023-05-21T01:11:01.560Z,77.95
2023-05-21T01:12:16.504Z,78.57
2023-05-21T01:13:31.483Z,78.81
2023-05-21T01:14:46.409Z,78.55
2023-05-21T01:16:01.407Z,78.57
2023-05-21T01:17:16.398Z,78.21
2023-05-21T01:18:31.376Z,78.41
2023-05-21T01:19:46.349Z,78.46
2023-05-21T01:21:01.322Z,78.65
2023-05-21T01:22:16.279Z,78.80
2023-05-21T01:23:31.213Z,78.79
2023-05-21T01:24:46.154Z,78.98
2023-05-21T01:26:01.106Z,78.72
2023-05-21T01:27:16.049Z,78.87
2023-05-21T01:28:31.024Z,78.91
2023-05-21T01:29:45.981Z,78.85
2023-05-21T01:31:00.952Z,79.02
2023-05-21T01:32:15.961Z,78.62
2023-05-21T01:33:30.907Z,78.50
2023-05-21T01:34:46.018Z,79.11
2023-05-21T01:36:00.961Z,79.23
2023-05-21T01:37:15.994Z,78.74
2023-05-21T01:38:31.201Z,78.58
2023-05-21T01:39:46.149Z,78.35
2023-05-21T01:41:01.092Z,78.96
2023-05-21T01:42:16.046Z,78.60
2023-05-21T01:43:31.020Z,79.00
2023-05-21T01:44:45.955Z,79.34
2023-05-21T01:46:00.939Z,79.46
2023-05-21T01:47:15.868Z,79.46
2023-05-21T01:48:30.804Z,79.58
2023-05-21T01:49:45.762Z,79.80
2023-05-21T01:51:00.703Z,79.75
2023-05-21T01:52:15.650Z,79.97
2023-05-21T01:53:30.588Z,79.84
2023-05-21T01:54:45.549Z,79.41
2023-05-21T01:56:00.489Z,79.49
2023-05-21T01:57:15.445Z,80.06
2023-05-21T01:58:30.406Z,80.06
2023-05-21T01:59:45.345Z,79.36
2023-05-21T02:01:00.296Z,79.24
2023-05-21T02:02:15.288Z,78.77
2023-05-21T02:03:30.286Z,79.44
2023-05-21T02:04:45.258Z,79.22
2023-05-21T02:06:00.210Z,78.82
2023-05-21T02:07:15.171Z,78.92
2023-05-21T02:08:30.119Z,78.78
2023-05-21T02:09:45.076Z,79.22
2023-05-21T02:11:00.047Z,78.87
2023-05-21T02:12:14.998Z,78.68
2023-05-21T02:13:29.965Z,78.46
2023-05-21T02:14:44.903Z,78.67
2023-05-21T02:15:59.878Z,78.98
2023-05-21T02:17:14.824Z,78.98
2023-05-21T02:18:29.797Z,78.51
2023-05-21T02:19:44.740Z,79.01
2023-05-21T02:20:59.680Z,79.35
2023-05-21T02:22:14.622Z,79.72
2023-05-21T02:23:29.575Z,79.22
2023-05-21T02:24:44.566Z,79.67
2023-05-21T02:25:59.473Z,79.11
2023-05-21T02:27:14.412Z,79.39
2023-05-21T02:28:29.350Z,79.18
2023-05-21T02:29:44.326Z,80.01
2023-05-21T02:30:59.281Z,80.19
2023-05-21T02:32:14.245Z,80.04
2023-05-21T02:33:29.173Z,80.03
2023-05-21T02:34:44.115Z,80.39
2023-05-21T02:35:59.076Z,80.53
2023-05-21T02:37:14.040Z,80.72
2023-05-21T02:38:28.994Z,80.94
2023-05-21T02:39:43.958Z,81.06
2023-05-21T02:40:58.909Z,80.57
2023-05-21T02:42:13.870Z,80.91
2023-05-21T02:43:28.811Z,81.11
2023-05-21T02:44:43.770Z,80.96
2023-05-21T02:45:58.786Z,80.35
2023-05-21T02:47:13.759Z,80.48
2023-05-21T02:48:28.710Z,80.30
2023-05-21T02:49:43.652Z,80.44
2023-05-21T02:50:58.598Z,80.51
2023-05-21T02:52:13.711Z,80.20
2023-05-21T02:53:28.622Z,80.65
2023-05-21T02:54:43.561Z,80.76
2023-05-21T02:55:58.469Z,81.12
2023-05-21T02:57:13.435Z,81.27
2023-05-21T02:58:28.385Z,81.17
2023-05-21T02:59:43.308Z,81.28
2023-05-21T03:00:58.224Z,81.28
2023-05-21T03:02:13.161Z,81.17
2023-05-21T03:03:28.237Z,81.28
2023-05-21T03:04:43.266Z,81.30
2023-05-21T03:05:58.167Z,81.41
2023-05-21T03:07:13.064Z,81.30
2023-05-21T03:08:27.968Z,81.59
2023-05-21T03:09:42.906Z,81.00
2023-05-21T03:10:57.850Z,81.71
2023-05-21T03:12:12.742Z,81.61
2023-05-21T03:13:27.644Z,81.19
2023-05-21T03:14:42.539Z,81.24
2023-05-21T03:15:57.443Z,81.44
2023-05-21T03:17:12.363Z,81.35
2023-05-21T03:18:27.235Z,81.67
2023-05-21T03:19:42.137Z,81.77
2023-05-21T03:20:57.040Z,81.91
2023-05-21T03:22:12.004Z,81.92
2023-05-21T03:23:26.912Z,81.87
2023-05-21T03:24:41.777Z,81.89
2023-05-21T03:25:56.695Z,82.04
2023-05-21T03:27:11.585Z,81.75
2023-05-21T03:28:26.469Z,81.86
2023-05-21T03:29:41.371Z,81.98
2023-05-21T03:30:56.263Z,81.76
2023-05-21T03:32:11.211Z,81.58
2023-05-21T03:33:26.059Z,81.61
2023-05-21T03:34:40.948Z,81.65
2023-05-21T03:35:55.857Z,81.83
2023-05-21T03:37:10.763Z,81.39
2023-05-21T03:38:25.663Z,81.22
2023-05-21T03:39:40.550Z,81.47
2023-05-21T03:40:55.433Z,82.00
2023-05-21T03:42:10.338Z,81.97
2023-05-21T03:43:25.238Z,81.21
2023-05-21T03:44:40.130Z,81.34
2023-05-21T03:45:55.086Z,81.39
2023-05-21T03:47:09.974Z,81.66
2023-05-21T03:48:24.857Z,81.39
2023-05-21T03:49:39.754Z,81.83
2023-05-21T03:50:54.647Z,82.04
2023-05-21T03:52:10.207Z,81.67
2023-05-21T03:53:25.131Z,81.72
2023-05-21T03:54:40.034Z,81.87
2023-05-21T03:55:54.936Z,81.90
2023-05-21T03:57:09.824Z,81.15
2023-05-21T03:58:24.712Z,81.37
2023-05-21T03:59:39.614Z,81.40
2023-05-21T04:00:54.508Z,81.41
2023-05-21T04:02:10.129Z,81.37
2023-05-21T04:03:25.177Z,81.27
2023-05-21T04:04:40.249Z,82.07
2023-05-21T04:05:55.130Z,82.05
2023-05-21T04:07:10.042Z,81.68
2023-05-21T04:08:24.934Z,82.01
2023-05-21T04:09:39.826Z,81.93
2023-05-21T04:10:54.718Z,81.90
2023-05-21T04:12:09.622Z,81.81
2023-05-21T04:13:24.519Z,81.88
2023-05-21T04:14:39.409Z,82.11
2023-05-21T04:15:54.339Z,82.17
2023-05-21T04:17:09.224Z,82.06
2023-05-21T04:18:24.119Z,82.19
2023-05-21T04:19:39.095Z,81.84
2023-05-21T04:20:54.001Z,81.50
2023-05-21T04:22:08.859Z,81.50
2023-05-21T04:23:23.960Z,81.39
2023-05-21T04:24:38.839Z,81.49
2023-05-21T04:25:53.754Z,81.75
2023-05-21T04:27:08.661Z,81.86
2023-05-21T04:28:23.546Z,81.87
2023-05-21T04:29:38.433Z,81.64
2023-05-21T04:30:53.343Z,81.77
2023-05-21T04:32:08.237Z,81.22
2023-05-21T04:33:23.159Z,81.24
2023-05-21T04:34:38.036Z,81.44
2023-05-21T04:35:52.931Z,81.26
2023-05-21T04:37:07.838Z,81.05
2023-05-21T04:38:22.708Z,81.24
2023-05-21T04:39:37.695Z,81.17
2023-05-21T04:40:52.601Z,80.86
2023-05-21T04:42:07.498Z,81.35
2023-05-21T04:43:22.413Z,81.00
2023-05-21T04:44:37.320Z,80.65
2023-05-21T04:45:52.217Z,80.48
2023-05-21T04:47:07.184Z,80.57
2023-05-21T04:48:22.118Z,80.63
2023-05-21T04:49:37.035Z,80.37
2023-05-21T04:50:51.900Z,80.24
2023-05-21T04:52:06.832Z,80.20
2023-05-21T04:53:21.747Z,80.25
2023-05-21T04:54:36.642Z,79.85
2023-05-21T04:55:51.535Z,79.83
2023-05-21T04:57:07.224Z,79.64
2023-05-21T04:58:22.125Z,80.17
2023-05-21T04:59:37.039Z,79.97
2023-05-21T05:00:52.001Z,79.54
2023-05-21T05:02:06.931Z,79.43
2023-05-21T05:03:21.869Z,79.43
2023-05-21T05:04:36.785Z,79.46
2023-05-21T05:05:51.696Z,79.29
2023-05-21T05:07:06.659Z,79.20
2023-05-21T05:08:21.550Z,79.39
2023-05-21T05:09:36.438Z,79.84
2023-05-21T05:10:51.337Z,79.79
2023-05-21T05:12:06.237Z,79.42
2023-05-21T05:13:21.126Z,79.87
2023-05-21T05:14:36.034Z,79.49
2023-05-21T05:15:52.554Z,78.70
2023-05-21T05:17:08.720Z,78.71
2023-05-21T05:18:23.617Z,78.26
2023-05-21T05:19:38.502Z,77.98
2023-05-21T05:20:53.389Z,79.11
2023-05-21T05:22:08.281Z,78.49
2023-05-21T05:23:23.174Z,77.67
2023-05-21T05:24:38.074Z,77.95
2023-05-21T05:25:52.958Z,77.66
2023-05-21T05:27:07.846Z,77.50
2023-05-21T05:28:22.760Z,77.50
2023-05-21T05:29:37.657Z,76.60
2023-05-21T05:30:52.552Z,76.63
2023-05-21T05:32:07.470Z,76.71
2023-05-21T05:33:22.360Z,76.73
2023-05-21T05:34:37.250Z,76.38
2023-05-21T05:35:52.172Z,76.82
2023-05-21T05:37:07.070Z,77.20
2023-05-21T05:38:21.964Z,77.12
2023-05-21T05:39:36.875Z,76.81
2023-05-21T05:40:51.760Z,76.15
2023-05-21T05:42:06.658Z,75.82
2023-05-21T05:43:21.548Z,75.96
2023-05-21T05:44:36.452Z,75.91
2023-05-21T05:45:51.422Z,75.94
2023-05-21T05:47:06.307Z,75.69
2023-05-21T05:48:21.222Z,75.22
2023-05-21T05:49:36.123Z,75.07
2023-05-21T05:50:51.004Z,75.05
2023-05-21T05:52:05.911Z,75.05
2023-05-21T05:53:20.779Z,75.07
2023-05-21T05:54:35.697Z,74.73
2023-05-21T05:55:50.581Z,74.94
2023-05-21T05:57:05.461Z,74.28
2023-05-21T05:58:20.360Z,75.03
2023-05-21T05:59:35.280Z,74.38
2023-05-21T06:00:50.156Z,74.08
2023-05-21T06:02:05.046Z,73.98
2023-05-21T06:03:20.089Z,73.66
2023-05-21T06:04:35.142Z,73.74
2023-05-21T06:05:50.138Z,73.31
2023-05-21T06:07:05.019Z,73.39
2023-05-21T06:08:19.915Z,73.43
2023-05-21T06:09:34.812Z,73.57
2023-05-21T06:10:49.690Z,73.48
2023-05-21T06:12:04.581Z,73.36
2023-05-21T06:13:19.488Z,72.78
2023-05-21T06:14:34.423Z,73.57
2023-05-21T06:15:49.396Z,73.71
2023-05-21T06:17:04.272Z,73.61
2023-05-21T06:18:19.158Z,73.17
2023-05-21T06:19:34.148Z,72.89
2023-05-21T06:20:49.046Z,73.01
2023-05-21T06:22:03.930Z,72.87
2023-05-21T06:23:18.830Z,72.64
2023-05-21T06:24:33.734Z,72.95
2023-05-21T06:25:48.656Z,72.76
2023-05-21T06:27:03.584Z,72.87
2023-05-21T06:28:18.489Z,72.90
2023-05-21T06:29:33.382Z,73.05
2023-05-21T06:30:48.287Z,72.67
2023-05-21T06:32:03.176Z,72.54
2023-05-21T06:33:18.238Z,72.73
2023-05-21T06:34:33.175Z,72.51
2023-05-21T06:35:48.075Z,72.19
2023-05-21T06:37:02.965Z,71.86
2023-05-21T06:38:17.867Z,71.89
2023-05-21T06:39:32.761Z,71.51
2023-05-21T06:40:47.677Z,71.23
2023-05-21T06:42:02.565Z,70.91
2023-05-21T06:43:17.459Z,71.13
2023-05-21T06:44:32.334Z,71.15
2023-05-21T06:45:47.276Z,71.04
2023-05-21T06:47:02.195Z,71.04
2023-05-21T06:48:17.061Z,71.11
2023-05-21T06:49:31.964Z,70.68
2023-05-21T06:50:46.875Z,70.58
2023-05-21T06:52:01.800Z,70.30
2023-05-21T06:53:16.737Z,70.20
2023-05-21T06:54:31.655Z,70.60
2023-05-21T06:55:46.543Z,70.22
2023-05-21T06:57:01.491Z,70.09
2023-05-21T06:58:16.402Z,70.24
2023-05-21T06:59:31.295Z,70.02
2023-05-21T07:00:46.321Z,69.55
2023-05-21T07:02:03.723Z,69.17
2023-05-21T07:03:19.540Z,69.37
2023-05-21T07:04:34.518Z,68.70
2023-05-21T07:05:49.394Z,69.13
2023-05-21T07:07:04.339Z,68.25
2023-05-21T07:08:19.196Z,68.64
2023-05-21T07:09:34.093Z,68.32
2023-05-21T07:10:48.987Z,68.52
2023-05-21T07:12:03.902Z,67.82
2023-05-21T07:13:18.821Z,67.74
2023-05-21T07:14:33.708Z,68.14
2023-05-21T07:15:48.602Z,67.86
2023-05-21T07:17:03.599Z,67.70
2023-05-21T07:18:18.508Z,68.55
2023-05-21T07:19:33.398Z,66.76
2023-05-21T07:20:48.278Z,67.20
2023-05-21T07:22:03.164Z,68.17
2023-05-21T07:23:18.115Z,67.17
2023-05-21T07:24:33.031Z,66.67
2023-05-21T07:25:47.978Z,66.63
2023-05-21T07:27:06.485Z,66.32
2023-05-21T07:28:22.669Z,66.47
2023-05-21T07:29:37.575Z,66.67
2023-05-21T07:30:52.509Z,66.65
2023-05-21T07:32:07.386Z,66.75
2023-05-21T07:33:22.269Z,66.03
2023-05-21T07:34:37.165Z,66.02
2023-05-21T07:35:52.072Z,65.89
2023-05-21T07:37:07.037Z,65.42
2023-05-21T07:38:21.903Z,65.48
2023-05-21T07:39:36.791Z,64.85
2023-05-21T07:40:51.680Z,65.06
2023-05-21T07:42:06.659Z,64.60
2023-05-21T07:43:21.592Z,64.08
2023-05-21T07:44:36.454Z,63.94
2023-05-21T07:45:51.393Z,64.02
2023-05-21T07:47:06.491Z,63.54
2023-05-21T07:48:21.360Z,63.13
2023-05-21T07:49:36.282Z,63.01
2023-05-21T07:50:51.161Z,62.35
2023-05-21T07:52:06.095Z,61.93
2023-05-21T07:53:20.969Z,61.01
2023-05-21T07:54:35.889Z,61.99
2023-05-21T07:55:50.786Z,61.51
2023-05-21T07:57:05.682Z,61.22
2023-05-21T07:58:20.562Z,60.25
2023-05-21T07:59:35.469Z,59.74
2023-05-21T08:00:50.385Z,59.00
2023-05-21T08:02:05.256Z,60.34
2023-05-21T08:03:20.283Z,60.19
2023-05-21T08:04:35.249Z,60.37
2023-05-21T08:05:50.114Z,61.12
2023-05-21T08:07:05.010Z,62.74
2023-05-21T08:08:19.946Z,62.27
2023-05-21T08:09:34.830Z,61.86
2023-05-21T08:10:49.810Z,61.44
2023-05-21T08:12:04.703Z,62.25
2023-05-21T08:13:19.600Z,62.33
2023-05-21T08:14:34.500Z,61.75
2023-05-21T08:15:52.005Z,61.62
2023-05-21T08:17:07.626Z,61.55
2023-05-21T08:18:22.593Z,61.54
2023-05-21T08:19:37.561Z,62.00
2023-05-21T08:20:52.474Z,62.31
2023-05-21T08:22:07.563Z,62.40
2023-05-21T08:23:22.422Z,62.17
2023-05-21T08:24:37.339Z,62.05
2023-05-21T08:25:52.252Z,62.72
2023-05-21T08:27:07.260Z,62.34
2023-05-21T08:28:22.246Z,62.17
2023-05-21T08:29:37.181Z,62.42
2023-05-21T08:30:52.069Z,62.77
2023-05-21T08:32:07.119Z,63.01
2023-05-21T08:33:22.050Z,63.05
2023-05-21T08:34:36.928Z,63.33
2023-05-21T08:35:51.936Z,62.28
2023-05-21T08:37:06.851Z,62.49
2023-05-21T08:38:21.764Z,62.82
2023-05-21T08:39:36.709Z,62.94
2023-05-21T08:40:51.667Z,63.71
2023-05-21T08:42:06.554Z,62.93
2023-05-21T08:43:21.447Z,62.58
2023-05-21T08:44:36.344Z,62.46
2023-05-21T08:45:51.274Z,62.78
2023-05-21T08:47:06.120Z,62.36
2023-05-21T08:48:21.012Z,62.49
2023-05-21T08:49:36.089Z,61.95
2023-05-21T08:50:51.023Z,60.93
2023-05-21T08:52:05.962Z,60.81
2023-05-21T08:53:28.144Z,60.63
2023-05-21T08:54:40.692Z,60.14
2023-05-21T08:55:55.624Z,60.20
2023-05-21T08:57:10.504Z,59.70
2023-05-21T08:58:25.413Z,59.59
2023-05-21T08:59:40.310Z,60.27
2023-05-21T09:00:55.263Z,59.93
2023-05-21T09:02:10.185Z,60.17
2023-05-21T09:03:25.117Z,60.75
2023-05-21T09:04:40.184Z,60.54
2023-05-21T09:05:55.083Z,60.17
2023-05-21T09:07:10.039Z,59.95
2023-05-21T09:08:24.919Z,59.53
2023-05-21T09:09:39.830Z,59.50
2023-05-21T09:10:54.755Z,59.41
2023-05-21T09:12:09.713Z,58.72
2023-05-21T09:13:24.808Z,58.82
2023-05-21T09:14:39.717Z,58.92
2023-05-21T09:15:54.614Z,59.04
2023-05-21T09:17:09.572Z,59.09
2023-05-21T09:18:24.520Z,58.91
2023-05-21T09:19:39.466Z,58.73
2023-05-21T09:20:54.355Z,59.18
2023-05-21T09:22:09.299Z,58.87
2023-05-21T09:23:24.190Z,58.91
2023-05-21T09:24:39.081Z,58.85
2023-05-21T09:25:53.964Z,57.78
2023-05-21T09:27:08.859Z,57.57
2023-05-21T09:28:23.760Z,58.45
2023-05-21T09:29:38.702Z,58.32
2023-05-21T09:30:53.812Z,58.10
2023-05-21T09:32:08.693Z,58.46
2023-05-21T09:33:23.694Z,58.12
2023-05-21T09:34:38.557Z,58.08
2023-05-21T09:35:53.522Z,58.05
2023-05-21T09:37:13.601Z,58.49
2023-05-21T09:38:28.193Z,59.18
2023-05-21T09:39:43.089Z,58.87
2023-05-21T09:40:57.995Z,59.02
2023-05-21T09:42:12.868Z,59.89
2023-05-21T09:43:27.795Z,59.70
2023-05-21T09:44:42.687Z,59.52
2023-05-21T09:45:59.710Z,58.72
2023-05-21T09:47:16.724Z,59.51
2023-05-21T09:48:31.662Z,58.77
2023-05-21T09:49:46.623Z,58.55
2023-05-21T09:51:01.495Z,58.50
2023-05-21T09:52:16.410Z,58.21
2023-05-21T09:53:31.335Z,58.50
2023-05-21T09:54:46.274Z,58.50
2023-05-21T09:56:01.173Z,58.26
2023-05-21T09:57:16.063Z,57.28
2023-05-21T09:58:30.973Z,57.42
2023-05-21T09:59:45.853Z,57.09
2023-05-21T10:01:00.793Z,56.81
2023-05-21T10:02:15.784Z,56.58
2023-05-21T10:03:30.818Z,58.00
2023-05-21T10:04:45.734Z,57.29
2023-05-21T10:06:00.601Z,57.34
2023-05-21T10:07:15.822Z,57.81
2023-05-21T10:08:30.810Z,57.87
2023-05-21T10:09:45.930Z,58.28
2023-05-21T10:11:00.891Z,57.38
2023-05-21T10:12:15.816Z,57.66
2023-05-21T10:13:30.777Z,57.53
2023-05-21T10:14:45.668Z,57.93
2023-05-21T10:16:00.596Z,57.53
2023-05-21T10:17:15.527Z,56.76
2023-05-21T10:18:30.488Z,56.90
2023-05-21T10:19:45.371Z,56.18
2023-05-21T10:21:00.415Z,55.96
2023-05-21T10:22:15.342Z,55.98
2023-05-21T10:23:30.301Z,56.24
2023-05-21T10:24:45.170Z,56.74
2023-05-21T10:26:00.059Z,56.54
2023-05-21T10:27:14.946Z,56.77
2023-05-21T10:28:29.850Z,56.27
2023-05-21T10:29:44.739Z,55.96
2023-05-21T10:30:59.635Z,56.12
2023-05-21T10:32:14.590Z,56.16
2023-05-21T10:33:29.580Z,55.96
2023-05-21T10:34:44.488Z,54.48
2023-05-21T10:35:59.455Z,54.64
2023-05-21T10:37:14.362Z,54.40
2023-05-21T10:38:29.266Z,53.40
2023-05-21T10:39:44.200Z,53.04
2023-05-21T10:40:59.108Z,53.01
2023-05-21T10:42:14.066Z,52.69
2023-05-21T10:43:28.982Z,52.69
2023-05-21T10:44:43.999Z,52.32
2023-05-21T10:45:59.032Z,52.79
2023-05-21T10:47:13.925Z,52.69
2023-05-21T10:48:28.852Z,52.18
2023-05-21T10:49:43.763Z,51.34
2023-05-21T10:50:58.662Z,51.55
2023-05-21T10:52:13.562Z,51.29
2023-05-21T10:53:28.587Z,50.41
2023-05-21T10:54:43.540Z,51.64
2023-05-21T10:55:58.462Z,52.74
2023-05-21T10:57:13.365Z,52.63
2023-05-21T10:58:29.892Z,52.82
2023-05-21T10:59:45.071Z,52.36
2023-05-21T11:00:59.976Z,52.00
2023-05-21T11:02:14.917Z,52.42
2023-05-21T11:03:29.888Z,51.13
2023-05-21T11:04:45.000Z,50.30
2023-05-21T11:05:59.882Z,49.48
2023-05-21T11:07:14.799Z,49.36
2023-05-21T11:08:29.716Z,49.12
2023-05-21T11:09:44.595Z,46.80
2023-05-21T11:10:59.481Z,45.65
2023-05-21T11:12:14.380Z,46.02
2023-05-21T11:13:29.361Z,45.10
2023-05-21T11:14:44.217Z,44.19
2023-05-21T11:15:59.183Z,44.05
2023-05-21T11:17:14.250Z,44.74
2023-05-21T11:18:29.131Z,44.44
2023-05-21T11:19:44.196Z,45.30
2023-05-21T11:20:59.105Z,45.98
2023-05-21T11:22:14.066Z,45.44
2023-05-21T11:23:28.960Z,46.23
2023-05-21T11:24:43.852Z,46.81
2023-05-21T11:25:58.836Z,47.11
2023-05-21T11:27:13.726Z,46.01
2023-05-21T11:28:28.621Z,44.99
2023-05-21T11:29:43.530Z,45.74
2023-05-21T11:30:58.468Z,46.19
2023-05-21T11:32:13.407Z,45.71
2023-05-21T11:33:28.356Z,43.88
2023-05-21T11:34:43.244Z,42.70
2023-05-21T11:35:58.171Z,42.19
2023-05-21T11:37:13.044Z,42.05
2023-05-21T11:38:27.985Z,43.88
2023-05-21T11:39:42.906Z,44.84
2023-05-21T11:40:57.776Z,44.00
2023-05-21T11:42:12.678Z,42.87
2023-05-21T11:43:27.570Z,42.40
2023-05-21T11:44:42.481Z,43.01
2023-05-21T11:45:57.369Z,42.12
2023-05-21T11:47:12.346Z,43.24
2023-05-21T11:48:28.920Z,42.74
2023-05-21T11:49:44.858Z,40.95
2023-05-21T11:50:59.752Z,40.75
2023-05-21T11:52:14.662Z,40.90
2023-05-21T11:53:29.625Z,40.99
2023-05-21T11:54:44.490Z,39.12
2023-05-21T11:55:59.616Z,38.57
2023-05-21T11:57:14.509Z,37.85
2023-05-21T11:58:29.391Z,37.46
2023-05-21T11:59:44.296Z,37.73
2023-05-21T12:00:59.221Z,37.11
2023-05-21T12:02:14.120Z,38.48
2023-05-21T12:03:29.019Z,38.88
2023-05-21T12:04:43.978Z,39.86
2023-05-21T12:05:58.954Z,39.58
2023-05-21T12:07:13.823Z,39.32
2023-05-21T12:08:28.734Z,39.10
2023-05-21T12:09:43.628Z,38.93
2023-05-21T12:10:58.508Z,38.57
2023-05-21T12:12:13.440Z,39.29
2023-05-21T12:13:28.308Z,39.79
2023-05-21T12:14:43.212Z,38.81
2023-05-21T12:15:58.126Z,38.15
2023-05-21T12:17:13.037Z,37.69
2023-05-21T12:18:27.922Z,39.08
2023-05-21T12:19:42.832Z,39.69
2023-05-21T12:20:57.729Z,39.16
2023-05-21T12:22:12.626Z,37.98
2023-05-21T12:23:27.512Z,38.21
2023-05-21T12:24:42.406Z,38.08
2023-05-21T12:25:57.311Z,38.41
2023-05-21T12:27:12.197Z,37.96
2023-05-21T12:28:27.098Z,37.32
2023-05-21T12:29:42.010Z,36.76
2023-05-21T12:30:56.901Z,35.79
2023-05-21T12:32:11.812Z,37.19
2023-05-21T12:33:26.684Z,35.77
2023-05-21T12:34:41.572Z,35.72
2023-05-21T12:35:56.486Z,36.98
2023-05-21T12:37:11.361Z,37.81
2023-05-21T12:38:26.252Z,36.13
2023-05-21T12:39:41.164Z,35.74
2023-05-21T12:40:56.048Z,36.80
2023-05-21T12:42:10.939Z,36.76
2023-05-21T12:43:25.845Z,34.76
2023-05-21T12:44:40.732Z,34.71
2023-05-21T12:45:55.693Z,35.06
2023-05-21T12:47:10.561Z,34.82
2023-05-21T12:48:25.447Z,34.64
2023-05-21T12:49:40.372Z,36.40
2023-05-21T12:50:55.260Z,36.98
2023-05-21T12:52:10.139Z,36.54
2023-05-21T12:53:25.021Z,35.63
2023-05-21T12:54:39.934Z,36.29
2023-05-21T12:55:54.822Z,35.28
2023-05-21T12:57:09.716Z,35.90
2023-05-21T12:58:24.601Z,36.14
2023-05-21T12:59:39.484Z,37.77
2023-05-21T13:00:54.404Z,38.31
2023-05-21T13:02:09.288Z,38.83
2023-05-21T13:03:24.183Z,39.73
2023-05-21T13:04:39.078Z,41.68
2023-05-21T13:05:53.967Z,42.73
2023-05-21T13:07:08.873Z,42.62
2023-05-21T13:08:23.771Z,42.15
2023-05-21T13:09:38.696Z,41.29
2023-05-21T13:10:53.607Z,40.53
2023-05-21T13:12:08.495Z,40.29
2023-05-21T13:13:23.407Z,40.10
2023-05-21T13:14:38.279Z,41.21
2023-05-21T13:15:53.301Z,41.28
2023-05-21T13:17:08.222Z,41.32
2023-05-21T13:18:23.201Z,39.32
2023-05-21T13:19:38.085Z,38.34
2023-05-21T13:20:52.962Z,37.77
2023-05-21T13:22:07.901Z,36.60
2023-05-21T13:23:22.781Z,36.29
2023-05-21T13:24:37.709Z,34.56
2023-05-21T13:25:52.613Z,36.26
2023-05-21T13:27:07.494Z,34.91
2023-05-21T13:28:22.381Z,33.51
2023-05-21T13:29:37.272Z,33.46
2023-05-21T13:30:52.173Z,34.72
2023-05-21T13:32:07.148Z,34.30
2023-05-21T13:33:22.095Z,35.28
2023-05-21T13:34:36.987Z,36.03
2023-05-21T13:35:51.880Z,36.01
2023-05-21T13:37:06.764Z,35.75
2023-05-21T13:38:21.664Z,35.31
2023-05-21T13:39:36.586Z,32.99
2023-05-21T13:40:51.486Z,34.63
2023-05-21T13:42:06.491Z,34.36
2023-05-21T13:43:21.365Z,36.77
2023-05-21T13:44:36.262Z,35.17
2023-05-21T13:45:51.169Z,34.08
2023-05-21T13:47:06.143Z,34.27
2023-05-21T13:48:21.064Z,34.36
2023-05-21T13:49:36.038Z,34.79
2023-05-21T13:50:50.916Z,33.16
2023-05-21T13:52:05.815Z,34.29
2023-05-21T13:53:20.710Z,34.28
2023-05-21T13:54:35.617Z,34.25
2023-05-21T13:55:51.128Z,34.72
2023-05-21T13:57:05.969Z,34.94
2023-05-21T13:58:20.870Z,34.58
2023-05-21T13:59:35.832Z,34.26
2023-05-21T14:00:50.793Z,31.99
2023-05-21T14:02:05.735Z,32.22
2023-05-21T14:03:20.618Z,32.59
2023-05-21T14:04:38.401Z,33.78
2023-05-21T14:05:54.119Z,34.92
2023-05-21T14:07:08.999Z,33.26
2023-05-21T14:08:23.896Z,32.92
2023-05-21T14:09:38.800Z,32.14
2023-05-21T14:10:53.694Z,32.77
2023-05-21T14:12:08.562Z,32.80
2023-05-21T14:13:23.476Z,33.03
2023-05-21T14:14:38.360Z,33.54
2023-05-21T14:15:53.255Z,30.68
2023-05-21T14:17:08.147Z,30.41
2023-05-21T14:18:23.052Z,31.22
2023-05-21T14:19:37.954Z,31.20
2023-05-21T14:20:52.848Z,32.60
2023-05-21T14:22:07.750Z,32.64
2023-05-21T14:23:22.676Z,32.13
2023-05-21T14:24:37.739Z,32.16
2023-05-21T14:25:52.677Z,29.93
2023-05-21T14:27:07.568Z,29.21
2023-05-21T14:28:22.497Z,29.94
2023-05-21T14:29:37.517Z,30.86
2023-05-21T14:30:52.398Z,30.44
2023-05-21T14:32:07.335Z,30.76
2023-05-21T14:33:22.196Z,30.90
2023-05-21T14:34:37.119Z,30.61
2023-05-21T14:35:52.002Z,30.78
2023-05-21T14:37:06.922Z,28.95
2023-05-21T14:38:21.812Z,29.27
2023-05-21T14:39:36.730Z,29.39
2023-05-21T14:40:51.670Z,27.17
2023-05-21T14:42:06.570Z,28.31
2023-05-21T14:43:21.500Z,28.47
2023-05-21T14:44:36.385Z,28.35
2023-05-21T14:45:51.314Z,27.72
2023-05-21T14:47:06.179Z,28.59
2023-05-21T14:48:21.073Z,27.78
2023-05-21T14:49:35.954Z,28.26
2023-05-21T14:50:51.575Z,27.70
2023-05-21T14:52:06.463Z,27.77
2023-05-21T14:53:21.350Z,27.01
2023-05-21T14:54:36.244Z,26.92
2023-05-21T14:55:51.161Z,27.20
2023-05-21T14:57:06.054Z,26.97
2023-05-21T14:58:20.970Z,27.49
2023-05-21T14:59:35.855Z,27.87
2023-05-21T15:00:50.783Z,26.29
2023-05-21T15:02:05.739Z,28.05
2023-05-21T15:03:20.649Z,27.63
2023-05-21T15:04:35.578Z,28.49
2023-05-21T15:05:50.492Z,28.44
2023-05-21T15:07:05.378Z,28.10
2023-05-21T15:08:20.321Z,26.53
2023-05-21T15:09:35.217Z,26.94
2023-05-21T15:10:50.107Z,27.07
2023-05-21T15:12:05.016Z,27.62
2023-05-21T15:13:19.913Z,28.53
2023-05-21T15:14:34.831Z,28.24
2023-05-21T15:15:49.757Z,28.08
2023-05-21T15:17:04.635Z,28.57
2023-05-21T15:18:19.555Z,28.39
2023-05-21T15:19:34.522Z,27.46
2023-05-21T15:20:49.412Z,27.44
2023-05-21T15:22:04.305Z,28.63
2023-05-21T15:23:19.227Z,28.67
2023-05-21T15:24:34.142Z,28.15
2023-05-21T15:25:49.039Z,29.23
2023-05-21T15:27:03.934Z,28.62
2023-05-21T15:28:18.825Z,28.33
2023-05-21T15:29:33.759Z,29.13
2023-05-21T15:30:48.622Z,28.92
2023-05-21T15:32:03.528Z,28.66
2023-05-21T15:33:18.425Z,29.33
2023-05-21T15:34:33.374Z,29.38
2023-05-21T15:35:48.409Z,29.81
2023-05-21T15:37:03.381Z,29.75
2023-05-21T15:38:18.254Z,28.93
2023-05-21T15:39:33.154Z,28.61
2023-05-21T15:40:48.059Z,27.49
2023-05-21T15:42:02.968Z,27.36
2023-05-21T15:43:17.914Z,26.00
2023-05-21T15:44:32.828Z,26.94
2023-05-21T15:45:47.737Z,27.64
2023-05-21T15:47:02.669Z,26.74
2023-05-21T15:48:17.558Z,26.79
2023-05-21T15:49:32.462Z,26.98
2023-05-21T15:50:47.463Z,26.99
